sensor_id;sensor_type;location;lat;lon;timestamp;P1;durP1;ratioP1;P2;durP2;ratioP2
72891;SDS011;61032;50.782;6.818;2023-05-02T00:00:45;23.48;;;15.05;;
72891;SDS011;61032;50.782;6.818;2023-05-02T00:01:46;23.80;;;15.75;;
72891;SDS011;61032;50.782;6.818;2023-05-02T00:02:47;23.42;;;14.60;;
72891;SDS011;61032;50.782;6.818;2023-05-02T00:03:47;25.10;;;15.70;;
72891;SDS011;61032;50.782;6.818;2023-05-02T00:04:48;25.55;;;16.50;;
72891;SDS011;61032;50.782;6.818;2023-05-02T00:05:48;22.95;;;15.75;;
72891;SDS011;61032;50.782;6.818;2023-05-02T00:06:50;21.77;;;14.45;;
72891;SDS011;61032;50.782;6.818;2023-05-02T00:07:51;27.00;;;15.07;;
72891;SDS011;61032;50.782;6.818;2023-05-02T00:08:52;25.58;;;16.42;;
72891;SDS011;61032;50.782;6.818;2023-05-02T00:09:52;28.48;;;15.75;;
72891;SDS011;61032;50.782;6.818;2023-05-02T00:10:53;27.83;;;16.83;;
72891;SDS011;61032;50.782;6.818;2023-05-02T00:11:53;25.77;;;15.40;;
72891;SDS011;61032;50.782;6.818;2023-05-02T00:12:53;26.95;;;16.20;;
72891;SDS011;61032;50.782;6.818;2023-05-02T00:13:53;27.60;;;16.65;;
72891;SDS011;61032;50.782;6.818;2023-05-02T00:14:54;25.55;;;16.85;;
72891;SDS011;61032;50.782;6.818;2023-05-02T00:15:54;25.02;;;16.38;;
72891;SDS011;61032;50.782;6.818;2023-05-02T00:16:54;26.08;;;16.98;;
72891;SDS011;61032;50.782;6.818;2023-05-02T00:17:55;27.98;;;17.38;;
72891;SDS011;61032;50.782;6.818;2023-05-02T00:18:55;25.42;;;16.40;;
72891;SDS011;61032;50.782;6.818;2023-05-02T00:19:55;27.45;;;16.23;;
72891;SDS011;61032;50.782;6.818;2023-05-02T00:20:56;26.45;;;16.73;;
72891;SDS011;61032;50.782;6.818;2023-05-02T00:21:56;26.42;;;15.93;;
72891;SDS011;61032;50.782;6.818;2023-05-02T00:22:56;28.10;;;17.30;;
72891;SDS011;61032;50.782;6.818;2023-05-02T00:23:57;27.88;;;16.25;;
72891;SDS011;61032;50.782;6.818;2023-05-02T00:24:57;29.05;;;16.48;;
72891;SDS011;61032;50.782;6.818;2023-05-02T00:25:58;26.67;;;16.92;;
72891;SDS011;61032;50.782;6.818;2023-05-02T00:26:58;27.52;;;16.17;;
72891;SDS011;61032;50.782;6.818;2023-05-02T00:27:58;25.42;;;15.52;;
72891;SDS011;61032;50.782;6.818;2023-05-02T00:28:59;28.77;;;16.33;;
72891;SDS011;61032;50.782;6.818;2023-05-02T00:30:00;25.77;;;16.85;;
72891;SDS011;61032;50.782;6.818;2023-05-02T00:31:00;24.30;;;15.88;;
72891;SDS011;61032;50.782;6.818;2023-05-02T00:32:01;32.17;;;18.55;;
72891;SDS011;61032;50.782;6.818;2023-05-02T00:33:01;27.42;;;16.20;;
72891;SDS011;61032;50.782;6.818;2023-05-02T00:34:02;26.60;;;17.08;;
72891;SDS011;61032;50.782;6.818;2023-05-02T00:35:02;27.65;;;16.48;;
72891;SDS011;61032;50.782;6.818;2023-05-02T00:36:02;25.55;;;16.48;;
72891;SDS011;61032;50.782;6.818;2023-05-02T00:37:03;29.10;;;16.90;;
72891;SDS011;61032;50.782;6.818;2023-05-02T00:38:03;26.35;;;16.85;;
72891;SDS011;61032;50.782;6.818;2023-05-02T00:39:03;25.45;;;15.93;;
72891;SDS011;61032;50.782;6.818;2023-05-02T00:40:04;25.42;;;16.77;;
72891;SDS011;61032;50.782;6.818;2023-05-02T00:41:06;27.92;;;16.50;;
72891;SDS011;61032;50.782;6.818;2023-05-02T00:42:07;26.25;;;16.20;;
72891;SDS011;61032;50.782;6.818;2023-05-02T00:43:07;26.75;;;17.10;;
72891;SDS011;61032;50.782;6.818;2023-05-02T00:44:07;30.20;;;17.83;;
72891;SDS011;61032;50.782;6.818;2023-05-02T00:45:08;26.92;;;17.00;;
72891;SDS011;61032;50.782;6.818;2023-05-02T00:46:08;25.55;;;15.55;;
72891;SDS011;61032;50.782;6.818;2023-05-02T00:47:11;27.45;;;16.52;;
72891;SDS011;61032;50.782;6.818;2023-05-02T00:48:11;27.35;;;17.02;;
72891;SDS011;61032;50.782;6.818;2023-05-02T00:49:12;26.08;;;16.25;;
72891;SDS011;61032;50.782;6.818;2023-05-02T00:50:12;30.55;;;17.48;;
72891;SDS011;61032;50.782;6.818;2023-05-02T00:51:13;28.33;;;16.65;;
72891;SDS011;61032;50.782;6.818;2023-05-02T00:52:14;28.67;;;18.10;;
72891;SDS011;61032;50.782;6.818;2023-05-02T00:53:14;31.63;;;17.55;;
72891;SDS011;61032;50.782;6.818;2023-05-02T00:54:14;28.48;;;16.95;;
72891;SDS011;61032;50.782;6.818;2023-05-02T00:55:15;27.02;;;16.52;;
72891;SDS011;61032;50.782;6.818;2023-05-02T00:56:16;28.20;;;17.00;;
72891;SDS011;61032;50.782;6.818;2023-05-02T00:57:16;28.73;;;17.27;;
72891;SDS011;61032;50.782;6.818;2023-05-02T00:58:17;27.58;;;17.17;;
72891;SDS011;61032;50.782;6.818;2023-05-02T01:00:19;28.10;;;16.23;;
72891;SDS011;61032;50.782;6.818;2023-05-02T01:01:35;30.40;;;16.85;;
72891;SDS011;61032;50.782;6.818;2023-05-02T01:02:50;27.77;;;17.13;;
72891;SDS011;61032;50.782;6.818;2023-05-02T01:04:03;27.50;;;16.42;;
72891;SDS011;61032;50.782;6.818;2023-05-02T01:05:16;27.85;;;16.83;;
72891;SDS011;61032;50.782;6.818;2023-05-02T01:10:47;32.33;;;17.38;;
72891;SDS011;61032;50.782;6.818;2023-05-02T01:12:03;30.38;;;17.25;;
72891;SDS011;61032;50.782;6.818;2023-05-02T01:13:18;30.80;;;17.63;;
72891;SDS011;61032;50.782;6.818;2023-05-02T01:14:21;29.90;;;17.42;;
72891;SDS011;61032;50.782;6.818;2023-05-02T01:15:25;27.90;;;17.13;;
72891;SDS011;61032;50.782;6.818;2023-05-02T01:16:26;33.08;;;18.30;;
72891;SDS011;61032;50.782;6.818;2023-05-02T01:17:28;31.08;;;18.15;;
72891;SDS011;61032;50.782;6.818;2023-05-02T01:18:33;31.60;;;18.98;;
72891;SDS011;61032;50.782;6.818;2023-05-02T01:19:38;32.58;;;17.73;;
72891;SDS011;61032;50.782;6.818;2023-05-02T01:20:41;32.55;;;18.30;;
72891;SDS011;61032;50.782;6.818;2023-05-02T01:21:43;31.35;;;17.42;;
72891;SDS011;61032;50.782;6.818;2023-05-02T01:22:46;31.73;;;17.80;;
72891;SDS011;61032;50.782;6.818;2023-05-02T01:23:59;30.52;;;18.38;;
72891;SDS011;61032;50.782;6.818;2023-05-02T01:28:56;32.03;;;17.98;;
72891;SDS011;61032;50.782;6.818;2023-05-02T01:29:59;32.47;;;17.40;;
72891;SDS011;61032;50.782;6.818;2023-05-02T01:31:02;33.00;;;17.67;;
72891;SDS011;61032;50.782;6.818;2023-05-02T01:32:05;33.85;;;17.63;;
72891;SDS011;61032;50.782;6.818;2023-05-02T01:33:08;33.30;;;18.40;;
72891;SDS011;61032;50.782;6.818;2023-05-02T01:34:11;34.72;;;18.40;;
72891;SDS011;61032;50.782;6.818;2023-05-02T01:35:15;34.78;;;18.70;;
72891;SDS011;61032;50.782;6.818;2023-05-02T01:36:17;34.63;;;19.02;;
72891;SDS011;61032;50.782;6.818;2023-05-02T01:37:18;34.22;;;19.00;;
72891;SDS011;61032;50.782;6.818;2023-05-02T01:38:21;32.95;;;18.92;;
72891;SDS011;61032;50.782;6.818;2023-05-02T01:39:24;37.60;;;19.63;;
72891;SDS011;61032;50.782;6.818;2023-05-02T01:40:25;38.50;;;20.10;;
72891;SDS011;61032;50.782;6.818;2023-05-02T01:41:26;34.22;;;18.98;;
72891;SDS011;61032;50.782;6.818;2023-05-02T01:42:30;33.45;;;19.42;;
72891;SDS011;61032;50.782;6.818;2023-05-02T01:43:32;34.65;;;18.15;;
72891;SDS011;61032;50.782;6.818;2023-05-02T01:44:34;32.22;;;18.30;;
72891;SDS011;61032;50.782;6.818;2023-05-02T01:45:36;35.55;;;19.30;;
72891;SDS011;61032;50.782;6.818;2023-05-02T01:46:39;32.55;;;17.58;;
72891;SDS011;61032;50.782;6.818;2023-05-02T01:47:43;33.58;;;17.70;;
72891;SDS011;61032;50.782;6.818;2023-05-02T01:48:45;35.75;;;18.05;;
72891;SDS011;61032;50.782;6.818;2023-05-02T01:49:48;36.35;;;19.60;;
72891;SDS011;61032;50.782;6.818;2023-05-02T01:50:48;35.03;;;18.35;;
72891;SDS011;61032;50.782;6.818;2023-05-02T01:51:50;33.92;;;18.75;;
72891;SDS011;61032;50.782;6.818;2023-05-02T01:52:52;34.22;;;18.38;;
72891;SDS011;61032;50.782;6.818;2023-05-02T01:53:53;36.83;;;19.13;;
72891;SDS011;61032;50.782;6.818;2023-05-02T01:54:54;32.72;;;17.48;;
72891;SDS011;61032;50.782;6.818;2023-05-02T01:55:56;34.70;;;18.33;;
72891;SDS011;61032;50.782;6.818;2023-05-02T01:56:58;35.35;;;18.33;;
72891;SDS011;61032;50.782;6.818;2023-05-02T01:58:02;34.97;;;17.35;;
72891;SDS011;61032;50.782;6.818;2023-05-02T01:59:05;37.15;;;18.80;;
72891;SDS011;61032;50.782;6.818;2023-05-02T02:00:08;37.67;;;18.17;;
72891;SDS011;61032;50.782;6.818;2023-05-02T02:02:12;38.03;;;18.63;;
72891;SDS011;61032;50.782;6.818;2023-05-02T02:03:13;39.78;;;18.90;;
72891;SDS011;61032;50.782;6.818;2023-05-02T02:04:16;35.78;;;19.25;;
72891;SDS011;61032;50.782;6.818;2023-05-02T02:05:18;36.25;;;19.08;;
72891;SDS011;61032;50.782;6.818;2023-05-02T02:06:20;36.17;;;19.90;;
72891;SDS011;61032;50.782;6.818;2023-05-02T02:07:21;37.22;;;20.23;;
72891;SDS011;61032;50.782;6.818;2023-05-02T02:08:22;37.97;;;19.85;;
72891;SDS011;61032;50.782;6.818;2023-05-02T02:09:23;40.42;;;21.00;;
72891;SDS011;61032;50.782;6.818;2023-05-02T02:10:23;39.05;;;19.50;;
72891;SDS011;61032;50.782;6.818;2023-05-02T02:11:34;38.47;;;19.02;;
72891;SDS011;61032;50.782;6.818;2023-05-02T02:12:52;36.83;;;19.65;;
72891;SDS011;61032;50.782;6.818;2023-05-02T02:13:59;37.17;;;19.02;;
72891;SDS011;61032;50.782;6.818;2023-05-02T02:16:23;36.33;;;18.75;;
72891;SDS011;61032;50.782;6.818;2023-05-02T02:17:38;37.90;;;19.15;;
72891;SDS011;61032;50.782;6.818;2023-05-02T02:18:42;36.17;;;18.60;;
72891;SDS011;61032;50.782;6.818;2023-05-02T02:20:44;33.92;;;17.92;;
72891;SDS011;61032;50.782;6.818;2023-05-02T02:21:47;37.08;;;18.05;;
72891;SDS011;61032;50.782;6.818;2023-05-02T02:22:48;39.35;;;19.63;;
72891;SDS011;61032;50.782;6.818;2023-05-02T02:23:51;39.22;;;19.27;;
72891;SDS011;61032;50.782;6.818;2023-05-02T02:24:55;38.42;;;19.50;;
72891;SDS011;61032;50.782;6.818;2023-05-02T02:25:57;37.03;;;18.42;;
72891;SDS011;61032;50.782;6.818;2023-05-02T02:27:00;44.05;;;20.38;;
72891;SDS011;61032;50.782;6.818;2023-05-02T02:28:01;39.55;;;19.20;;
72891;SDS011;61032;50.782;6.818;2023-05-02T02:29:02;36.05;;;19.20;;
72891;SDS011;61032;50.782;6.818;2023-05-02T02:30:03;38.78;;;19.83;;
72891;SDS011;61032;50.782;6.818;2023-05-02T02:31:03;36.10;;;18.80;;
72891;SDS011;61032;50.782;6.818;2023-05-02T02:32:04;38.67;;;18.38;;
72891;SDS011;61032;50.782;6.818;2023-05-02T02:33:04;34.85;;;19.33;;
72891;SDS011;61032;50.782;6.818;2023-05-02T02:34:05;36.05;;;17.88;;
72891;SDS011;61032;50.782;6.818;2023-05-02T02:35:06;44.53;;;18.83;;
72891;SDS011;61032;50.782;6.818;2023-05-02T02:36:09;34.67;;;18.88;;
72891;SDS011;61032;50.782;6.818;2023-05-02T02:37:14;34.30;;;18.48;;
72891;SDS011;61032;50.782;6.818;2023-05-02T02:39:43;32.35;;;17.25;;
72891;SDS011;61032;50.782;6.818;2023-05-02T02:52:09;34.47;;;16.27;;
72891;SDS011;61032;50.782;6.818;2023-05-02T02:53:19;33.80;;;15.70;;
72891;SDS011;61032;50.782;6.818;2023-05-02T02:54:34;37.70;;;16.70;;
72891;SDS011;61032;50.782;6.818;2023-05-02T02:55:59;33.97;;;15.88;;
72891;SDS011;61032;50.782;6.818;2023-05-02T02:57:32;31.73;;;14.73;;
72891;SDS011;61032;50.782;6.818;2023-05-02T02:58:45;30.13;;;12.50;;
72891;SDS011;61032;50.782;6.818;2023-05-02T02:59:58;34.65;;;14.23;;
72891;SDS011;61032;50.782;6.818;2023-05-02T03:01:01;31.50;;;15.70;;
72891;SDS011;61032;50.782;6.818;2023-05-02T03:02:07;31.42;;;14.98;;
72891;SDS011;61032;50.782;6.818;2023-05-02T03:03:08;33.15;;;15.38;;
72891;SDS011;61032;50.782;6.818;2023-05-02T03:04:10;30.20;;;14.10;;
72891;SDS011;61032;50.782;6.818;2023-05-02T03:05:12;32.05;;;14.88;;
72891;SDS011;61032;50.782;6.818;2023-05-02T03:06:14;29.85;;;14.55;;
72891;SDS011;61032;50.782;6.818;2023-05-02T03:07:16;32.67;;;15.18;;
72891;SDS011;61032;50.782;6.818;2023-05-02T03:08:16;28.02;;;14.13;;
72891;SDS011;61032;50.782;6.818;2023-05-02T03:09:17;29.35;;;14.05;;
72891;SDS011;61032;50.782;6.818;2023-05-02T03:10:17;29.98;;;15.13;;
72891;SDS011;61032;50.782;6.818;2023-05-02T03:11:18;31.50;;;14.82;;
72891;SDS011;61032;50.782;6.818;2023-05-02T03:12:18;31.27;;;14.75;;
72891;SDS011;61032;50.782;6.818;2023-05-02T03:13:18;29.25;;;14.13;;
72891;SDS011;61032;50.782;6.818;2023-05-02T03:14:18;30.80;;;15.90;;
72891;SDS011;61032;50.782;6.818;2023-05-02T03:15:24;31.63;;;14.75;;
72891;SDS011;61032;50.782;6.818;2023-05-02T03:16:58;32.03;;;15.20;;
72891;SDS011;61032;50.782;6.818;2023-05-02T03:17:58;35.97;;;15.63;;
72891;SDS011;61032;50.782;6.818;2023-05-02T03:18:58;29.45;;;16.73;;
72891;SDS011;61032;50.782;6.818;2023-05-02T03:19:58;30.90;;;15.00;;
72891;SDS011;61032;50.782;6.818;2023-05-02T03:20:59;29.60;;;15.45;;
72891;SDS011;61032;50.782;6.818;2023-05-02T03:22:00;31.27;;;14.60;;
72891;SDS011;61032;50.782;6.818;2023-05-02T03:23:01;30.65;;;15.30;;
72891;SDS011;61032;50.782;6.818;2023-05-02T03:24:02;34.05;;;14.93;;
72891;SDS011;61032;50.782;6.818;2023-05-02T03:25:03;31.48;;;15.45;;
72891;SDS011;61032;50.782;6.818;2023-05-02T03:26:03;29.17;;;16.25;;
72891;SDS011;61032;50.782;6.818;2023-05-02T03:27:05;30.35;;;15.70;;
72891;SDS011;61032;50.782;6.818;2023-05-02T03:28:05;30.13;;;15.00;;
72891;SDS011;61032;50.782;6.818;2023-05-02T03:29:05;32.40;;;15.73;;
72891;SDS011;61032;50.782;6.818;2023-05-02T03:30:06;35.90;;;16.70;;
72891;SDS011;61032;50.782;6.818;2023-05-02T03:31:07;33.08;;;15.70;;
72891;SDS011;61032;50.782;6.818;2023-05-02T03:32:07;29.40;;;15.55;;
72891;SDS011;61032;50.782;6.818;2023-05-02T03:33:07;34.80;;;16.48;;
72891;SDS011;61032;50.782;6.818;2023-05-02T03:34:08;31.35;;;16.02;;
72891;SDS011;61032;50.782;6.818;2023-05-02T03:35:08;33.58;;;17.17;;
72891;SDS011;61032;50.782;6.818;2023-05-02T03:36:09;32.58;;;16.60;;
72891;SDS011;61032;50.782;6.818;2023-05-02T03:37:10;33.60;;;17.42;;
72891;SDS011;61032;50.782;6.818;2023-05-02T03:38:10;34.72;;;16.88;;
72891;SDS011;61032;50.782;6.818;2023-05-02T03:39:10;34.63;;;17.45;;
72891;SDS011;61032;50.782;6.818;2023-05-02T03:40:11;31.88;;;17.58;;
72891;SDS011;61032;50.782;6.818;2023-05-02T03:41:11;34.00;;;17.50;;
72891;SDS011;61032;50.782;6.818;2023-05-02T03:42:11;33.55;;;16.58;;
72891;SDS011;61032;50.782;6.818;2023-05-02T03:43:12;35.67;;;17.90;;
72891;SDS011;61032;50.782;6.818;2023-05-02T03:44:12;33.65;;;16.85;;
72891;SDS011;61032;50.782;6.818;2023-05-02T03:45:12;35.60;;;16.98;;
72891;SDS011;61032;50.782;6.818;2023-05-02T03:46:13;36.17;;;17.15;;
72891;SDS011;61032;50.782;6.818;2023-05-02T03:47:13;37.10;;;18.40;;
72891;SDS011;61032;50.782;6.818;2023-05-02T03:48:14;33.70;;;17.85;;
72891;SDS011;61032;50.782;6.818;2023-05-02T03:49:14;36.97;;;17.77;;
72891;SDS011;61032;50.782;6.818;2023-05-02T03:50:14;32.88;;;17.15;;
72891;SDS011;61032;50.782;6.818;2023-05-02T03:51:15;36.15;;;18.38;;
72891;SDS011;61032;50.782;6.818;2023-05-02T03:52:15;34.88;;;17.33;;
72891;SDS011;61032;50.782;6.818;2023-05-02T03:53:15;34.85;;;17.80;;
72891;SDS011;61032;50.782;6.818;2023-05-02T03:54:16;37.05;;;18.55;;
72891;SDS011;61032;50.782;6.818;2023-05-02T03:55:17;36.38;;;18.00;;
72891;SDS011;61032;50.782;6.818;2023-05-02T03:56:17;36.55;;;17.25;;
72891;SDS011;61032;50.782;6.818;2023-05-02T03:57:21;41.75;;;20.02;;
72891;SDS011;61032;50.782;6.818;2023-05-02T03:58:21;39.90;;;18.75;;
72891;SDS011;61032;50.782;6.818;2023-05-02T03:59:22;42.03;;;19.55;;
72891;SDS011;61032;50.782;6.818;2023-05-02T04:00:22;43.47;;;20.08;;
72891;SDS011;61032;50.782;6.818;2023-05-02T04:01:23;41.75;;;21.48;;
72891;SDS011;61032;50.782;6.818;2023-05-02T04:02:23;47.45;;;22.20;;
72891;SDS011;61032;50.782;6.818;2023-05-02T04:03:24;46.88;;;21.88;;
72891;SDS011;61032;50.782;6.818;2023-05-02T04:04:24;48.47;;;22.23;;
72891;SDS011;61032;50.782;6.818;2023-05-02T04:05:25;41.50;;;21.05;;
72891;SDS011;61032;50.782;6.818;2023-05-02T04:06:26;47.08;;;21.60;;
72891;SDS011;61032;50.782;6.818;2023-05-02T04:07:26;41.08;;;20.33;;
72891;SDS011;61032;50.782;6.818;2023-05-02T04:08:27;42.40;;;22.20;;
72891;SDS011;61032;50.782;6.818;2023-05-02T04:09:33;46.58;;;21.83;;
72891;SDS011;61032;50.782;6.818;2023-05-02T04:10:34;46.90;;;23.02;;
72891;SDS011;61032;50.782;6.818;2023-05-02T04:11:34;45.35;;;22.60;;
72891;SDS011;61032;50.782;6.818;2023-05-02T04:12:34;41.63;;;20.70;;
72891;SDS011;61032;50.782;6.818;2023-05-02T04:13:35;46.05;;;22.63;;
72891;SDS011;61032;50.782;6.818;2023-05-02T04:14:35;47.13;;;22.70;;
72891;SDS011;61032;50.782;6.818;2023-05-02T04:15:36;46.67;;;21.73;;
72891;SDS011;61032;50.782;6.818;2023-05-02T04:16:36;49.70;;;22.75;;
72891;SDS011;61032;50.782;6.818;2023-05-02T04:17:37;50.25;;;22.38;;
72891;SDS011;61032;50.782;6.818;2023-05-02T04:18:38;49.60;;;22.40;;
72891;SDS011;61032;50.782;6.818;2023-05-02T04:19:38;48.92;;;22.65;;
72891;SDS011;61032;50.782;6.818;2023-05-02T04:20:38;47.65;;;22.83;;
72891;SDS011;61032;50.782;6.818;2023-05-02T04:21:42;48.13;;;22.00;;
72891;SDS011;61032;50.782;6.818;2023-05-02T04:22:43;45.20;;;21.65;;
72891;SDS011;61032;50.782;6.818;2023-05-02T04:23:43;48.55;;;21.10;;
72891;SDS011;61032;50.782;6.818;2023-05-02T04:24:43;43.25;;;21.23;;
72891;SDS011;61032;50.782;6.818;2023-05-02T04:25:53;46.03;;;21.63;;
72891;SDS011;61032;50.782;6.818;2023-05-02T04:26:54;44.35;;;20.45;;
72891;SDS011;61032;50.782;6.818;2023-05-02T04:27:54;49.20;;;22.60;;
72891;SDS011;61032;50.782;6.818;2023-05-02T04:28:55;45.25;;;22.08;;
72891;SDS011;61032;50.782;6.818;2023-05-02T04:29:55;44.70;;;20.90;;
72891;SDS011;61032;50.782;6.818;2023-05-02T04:30:56;45.47;;;21.48;;
72891;SDS011;61032;50.782;6.818;2023-05-02T04:31:56;43.38;;;20.90;;
72891;SDS011;61032;50.782;6.818;2023-05-02T04:32:56;41.42;;;20.63;;
72891;SDS011;61032;50.782;6.818;2023-05-02T04:33:57;41.00;;;20.30;;
72891;SDS011;61032;50.782;6.818;2023-05-02T04:34:57;45.33;;;20.05;;
72891;SDS011;61032;50.782;6.818;2023-05-02T04:35:57;43.05;;;21.27;;
72891;SDS011;61032;50.782;6.818;2023-05-02T04:36:57;48.42;;;20.77;;
72891;SDS011;61032;50.782;6.818;2023-05-02T04:38:00;47.28;;;21.90;;
72891;SDS011;61032;50.782;6.818;2023-05-02T04:39:00;43.13;;;19.70;;
72891;SDS011;61032;50.782;6.818;2023-05-02T04:40:01;46.00;;;21.05;;
72891;SDS011;61032;50.782;6.818;2023-05-02T04:41:02;40.83;;;20.25;;
72891;SDS011;61032;50.782;6.818;2023-05-02T04:42:03;44.28;;;19.83;;
72891;SDS011;61032;50.782;6.818;2023-05-02T04:43:03;43.88;;;19.23;;
72891;SDS011;61032;50.782;6.818;2023-05-02T04:44:03;42.10;;;19.80;;
72891;SDS011;61032;50.782;6.818;2023-05-02T04:45:04;42.08;;;19.45;;
72891;SDS011;61032;50.782;6.818;2023-05-02T04:46:05;40.88;;;19.48;;
72891;SDS011;61032;50.782;6.818;2023-05-02T04:47:05;41.00;;;19.13;;
72891;SDS011;61032;50.782;6.818;2023-05-02T04:48:06;41.97;;;20.75;;
72891;SDS011;61032;50.782;6.818;2023-05-02T04:49:06;38.97;;;18.55;;
72891;SDS011;61032;50.782;6.818;2023-05-02T04:50:07;39.63;;;18.02;;
72891;SDS011;61032;50.782;6.818;2023-05-02T04:51:08;39.67;;;18.50;;
72891;SDS011;61032;50.782;6.818;2023-05-02T04:52:09;34.95;;;18.17;;
72891;SDS011;61032;50.782;6.818;2023-05-02T04:53:10;38.20;;;17.73;;
72891;SDS011;61032;50.782;6.818;2023-05-02T04:54:11;40.45;;;18.48;;
72891;SDS011;61032;50.782;6.818;2023-05-02T04:55:11;40.38;;;19.00;;
72891;SDS011;61032;50.782;6.818;2023-05-02T04:56:12;45.72;;;19.98;;
72891;SDS011;61032;50.782;6.818;2023-05-02T04:57:12;36.78;;;18.35;;
72891;SDS011;61032;50.782;6.818;2023-05-02T04:58:13;37.90;;;18.63;;
72891;SDS011;61032;50.782;6.818;2023-05-02T04:59:13;41.65;;;19.30;;
72891;SDS011;61032;50.782;6.818;2023-05-02T05:00:13;34.63;;;16.17;;
72891;SDS011;61032;50.782;6.818;2023-05-02T05:01:14;35.90;;;17.38;;
72891;SDS011;61032;50.782;6.818;2023-05-02T05:02:15;36.42;;;17.58;;
72891;SDS011;61032;50.782;6.818;2023-05-02T05:03:15;37.40;;;17.45;;
72891;SDS011;61032;50.782;6.818;2023-05-02T05:04:16;33.97;;;15.90;;
72891;SDS011;61032;50.782;6.818;2023-05-02T05:05:16;34.67;;;16.52;;
72891;SDS011;61032;50.782;6.818;2023-05-02T05:06:16;32.00;;;15.60;;
72891;SDS011;61032;50.782;6.818;2023-05-02T05:07:18;35.65;;;15.23;;
72891;SDS011;61032;50.782;6.818;2023-05-02T05:08:18;29.30;;;14.52;;
72891;SDS011;61032;50.782;6.818;2023-05-02T05:09:18;31.33;;;15.15;;
72891;SDS011;61032;50.782;6.818;2023-05-02T05:10:19;34.78;;;16.60;;
72891;SDS011;61032;50.782;6.818;2023-05-02T05:11:19;29.75;;;14.85;;
72891;SDS011;61032;50.782;6.818;2023-05-02T05:12:19;31.27;;;14.90;;
72891;SDS011;61032;50.782;6.818;2023-05-02T05:13:19;29.77;;;14.40;;
72891;SDS011;61032;50.782;6.818;2023-05-02T05:14:20;32.20;;;15.32;;
72891;SDS011;61032;50.782;6.818;2023-05-02T05:15:21;37.05;;;16.17;;
72891;SDS011;61032;50.782;6.818;2023-05-02T05:16:24;31.33;;;14.70;;
72891;SDS011;61032;50.782;6.818;2023-05-02T05:17:24;29.38;;;14.00;;
72891;SDS011;61032;50.782;6.818;2023-05-02T05:18:25;31.50;;;14.93;;
72891;SDS011;61032;50.782;6.818;2023-05-02T05:19:25;32.10;;;14.10;;
72891;SDS011;61032;50.782;6.818;2023-05-02T05:20:26;29.25;;;14.05;;
72891;SDS011;61032;50.782;6.818;2023-05-02T05:21:27;29.90;;;13.48;;
72891;SDS011;61032;50.782;6.818;2023-05-02T05:22:27;26.77;;;12.52;;
72891;SDS011;61032;50.782;6.818;2023-05-02T05:23:27;27.27;;;13.15;;
72891;SDS011;61032;50.782;6.818;2023-05-02T05:24:27;27.63;;;13.32;;
72891;SDS011;61032;50.782;6.818;2023-05-02T05:25:28;27.98;;;13.82;;
72891;SDS011;61032;50.782;6.818;2023-05-02T05:26:28;28.73;;;14.07;;
72891;SDS011;61032;50.782;6.818;2023-05-02T05:27:28;27.23;;;12.63;;
72891;SDS011;61032;50.782;6.818;2023-05-02T05:28:29;25.80;;;11.98;;
72891;SDS011;61032;50.782;6.818;2023-05-02T05:29:32;28.08;;;12.65;;
72891;SDS011;61032;50.782;6.818;2023-05-02T05:30:32;25.70;;;12.70;;
72891;SDS011;61032;50.782;6.818;2023-05-02T05:31:32;29.55;;;14.77;;
72891;SDS011;61032;50.782;6.818;2023-05-02T05:32:33;23.08;;;11.55;;
72891;SDS011;61032;50.782;6.818;2023-05-02T05:33:34;25.73;;;11.88;;
72891;SDS011;61032;50.782;6.818;2023-05-02T05:34:35;27.88;;;13.57;;
72891;SDS011;61032;50.782;6.818;2023-05-02T05:35:36;27.58;;;12.48;;
72891;SDS011;61032;50.782;6.818;2023-05-02T05:36:38;26.90;;;12.50;;
72891;SDS011;61032;50.782;6.818;2023-05-02T05:37:39;27.02;;;13.23;;
72891;SDS011;61032;50.782;6.818;2023-05-02T05:38:39;23.67;;;12.32;;
72891;SDS011;61032;50.782;6.818;2023-05-02T05:39:40;23.23;;;12.00;;
72891;SDS011;61032;50.782;6.818;2023-05-02T05:40:40;22.30;;;10.85;;
72891;SDS011;61032;50.782;6.818;2023-05-02T05:41:40;26.17;;;10.95;;
72891;SDS011;61032;50.782;6.818;2023-05-02T05:42:41;22.75;;;10.90;;
72891;SDS011;61032;50.782;6.818;2023-05-02T05:43:41;25.58;;;11.57;;
72891;SDS011;61032;50.782;6.818;2023-05-02T05:44:42;23.98;;;11.45;;
72891;SDS011;61032;50.782;6.818;2023-05-02T05:45:42;19.33;;;9.40;;
72891;SDS011;61032;50.782;6.818;2023-05-02T05:46:42;20.13;;;9.57;;
72891;SDS011;61032;50.782;6.818;2023-05-02T05:47:43;17.65;;;9.38;;
72891;SDS011;61032;50.782;6.818;2023-05-02T05:48:43;25.65;;;10.57;;
72891;SDS011;61032;50.782;6.818;2023-05-02T05:49:43;23.95;;;11.02;;
72891;SDS011;61032;50.782;6.818;2023-05-02T05:50:43;21.15;;;10.18;;
72891;SDS011;61032;50.782;6.818;2023-05-02T05:51:44;20.55;;;9.55;;
72891;SDS011;61032;50.782;6.818;2023-05-02T05:52:46;23.70;;;10.48;;
72891;SDS011;61032;50.782;6.818;2023-05-02T05:53:46;21.60;;;11.10;;
72891;SDS011;61032;50.782;6.818;2023-05-02T05:54:47;29.17;;;12.45;;
72891;SDS011;61032;50.782;6.818;2023-05-02T05:55:47;21.98;;;10.32;;
72891;SDS011;61032;50.782;6.818;2023-05-02T05:56:47;22.60;;;9.73;;
72891;SDS011;61032;50.782;6.818;2023-05-02T05:57:48;19.50;;;9.02;;
72891;SDS011;61032;50.782;6.818;2023-05-02T05:58:48;20.13;;;10.02;;
72891;SDS011;61032;50.782;6.818;2023-05-02T05:59:48;20.40;;;10.52;;
72891;SDS011;61032;50.782;6.818;2023-05-02T06:00:49;18.38;;;8.68;;
72891;SDS011;61032;50.782;6.818;2023-05-02T06:01:49;17.63;;;8.60;;
72891;SDS011;61032;50.782;6.818;2023-05-02T06:02:51;19.10;;;8.82;;
72891;SDS011;61032;50.782;6.818;2023-05-02T06:03:51;20.77;;;10.18;;
72891;SDS011;61032;50.782;6.818;2023-05-02T06:04:51;20.20;;;11.20;;
72891;SDS011;61032;50.782;6.818;2023-05-02T06:05:52;22.30;;;10.68;;
72891;SDS011;61032;50.782;6.818;2023-05-02T06:06:52;20.38;;;9.70;;
72891;SDS011;61032;50.782;6.818;2023-05-02T06:07:53;19.83;;;9.65;;
72891;SDS011;61032;50.782;6.818;2023-05-02T06:08:53;16.63;;;9.60;;
72891;SDS011;61032;50.782;6.818;2023-05-02T06:09:53;17.88;;;8.90;;
72891;SDS011;61032;50.782;6.818;2023-05-02T06:10:54;22.02;;;10.27;;
72891;SDS011;61032;50.782;6.818;2023-05-02T06:11:54;22.38;;;10.40;;
72891;SDS011;61032;50.782;6.818;2023-05-02T06:12:55;21.63;;;9.85;;
72891;SDS011;61032;50.782;6.818;2023-05-02T06:13:55;16.42;;;8.80;;
72891;SDS011;61032;50.782;6.818;2023-05-02T06:14:55;19.35;;;10.23;;
72891;SDS011;61032;50.782;6.818;2023-05-02T06:15:59;20.77;;;9.95;;
72891;SDS011;61032;50.782;6.818;2023-05-02T06:17:00;20.65;;;10.32;;
72891;SDS011;61032;50.782;6.818;2023-05-02T06:18:00;17.92;;;9.07;;
72891;SDS011;61032;50.782;6.818;2023-05-02T06:19:01;19.42;;;8.90;;
72891;SDS011;61032;50.782;6.818;2023-05-02T06:20:01;20.63;;;9.40;;
72891;SDS011;61032;50.782;6.818;2023-05-02T06:21:04;18.95;;;9.52;;
72891;SDS011;61032;50.782;6.818;2023-05-02T06:22:05;22.30;;;10.18;;
72891;SDS011;61032;50.782;6.818;2023-05-02T06:23:05;20.60;;;9.77;;
72891;SDS011;61032;50.782;6.818;2023-05-02T06:24:06;21.10;;;10.23;;
72891;SDS011;61032;50.782;6.818;2023-05-02T06:25:06;24.00;;;10.23;;
72891;SDS011;61032;50.782;6.818;2023-05-02T06:26:07;19.65;;;10.25;;
72891;SDS011;61032;50.782;6.818;2023-05-02T06:27:09;18.05;;;9.23;;
72891;SDS011;61032;50.782;6.818;2023-05-02T06:28:09;19.35;;;8.43;;